createdAt,value
2019-01-06T00:01:14.549Z,31.33
2019-01-06T00:03:44.639Z,22.27
2019-01-06T00:06:14.873Z,19.70
2019-01-06T00:08:48.033Z,18.50
2019-01-06T00:11:26.730Z,25.37
2019-01-06T00:14:09.004Z,18.40
2019-01-06T00:16:39.166Z,16.47
2019-01-06T00:19:24.250Z,19.47
2019-01-06T00:22:10.675Z,19.83
2019-01-06T00:24:43.305Z,13.70
2019-01-06T00:27:13.445Z,18.03
2019-01-06T00:30:19.025Z,19.93
2019-01-06T00:32:51.797Z,23.00
2019-01-06T00:35:21.924Z,18.17
2019-01-06T00:37:58.033Z,22.23
2019-01-06T00:40:33.973Z,16.77
2019-01-06T00:43:04.066Z,18.37
2019-01-06T00:45:37.130Z,16.50
2019-01-06T00:48:07.318Z,17.07
2019-01-06T00:50:46.586Z,14.47
2019-01-06T00:53:19.685Z,15.93
2019-01-06T00:55:55.814Z,10.37
2019-01-06T00:58:31.969Z,15.53
2019-01-06T01:01:05.252Z,13.43
2019-01-06T01:03:38.564Z,13.93
2019-01-06T01:06:08.716Z,12.13
2019-01-06T01:08:55.321Z,12.53
2019-01-06T01:11:41.842Z,11.07
2019-01-06T01:14:11.969Z,10.53
2019-01-06T01:16:57.330Z,10.73
2019-01-06T01:19:33.405Z,13.37
2019-01-06T01:22:05.963Z,8.23
2019-01-06T01:24:36.127Z,12.73
2019-01-06T01:27:22.229Z,13.40
2019-01-06T01:29:52.488Z,12.50
2019-01-06T01:32:22.573Z,12.30
2019-01-06T01:34:55.474Z,19.60
2019-01-06T01:37:28.357Z,10.57
2019-01-06T01:40:14.682Z,12.20
2019-01-06T01:43:00.973Z,12.30
2019-01-06T01:45:31.191Z,11.30
2019-01-06T01:48:04.002Z,10.27
2019-01-06T01:50:36.845Z,12.43
2019-01-06T01:53:23.608Z,10.00
2019-01-06T01:56:02.749Z,10.37
2019-01-06T01:58:44.890Z,9.30
2019-01-06T02:01:23.653Z,9.50
2019-01-06T02:04:08.790Z,11.87
2019-01-06T02:06:38.914Z,11.30
2019-01-06T02:09:09.066Z,11.50
2019-01-06T02:11:55.178Z,11.10
2019-01-06T02:14:37.483Z,10.43
2019-01-06T02:17:07.665Z,9.73
2019-01-06T02:19:49.634Z,9.60
2019-01-06T02:22:22.329Z,6.57
2019-01-06T02:24:55.185Z,11.13
2019-01-06T02:27:43.357Z,13.67
2019-01-06T02:30:16.266Z,11.57
2019-01-06T02:33:04.307Z,8.77
2019-01-06T02:35:37.117Z,9.57
2019-01-06T02:38:22.273Z,8.27
2019-01-06T02:41:01.559Z,8.90
2019-01-06T02:43:49.809Z,6.57
2019-01-06T02:46:36.016Z,9.13
2019-01-06T02:49:22.373Z,7.20
2019-01-06T02:51:55.037Z,6.67
2019-01-06T02:54:25.125Z,7.63
2019-01-06T02:56:58.066Z,7.67
2019-01-06T02:59:43.135Z,8.07
2019-01-06T03:02:13.320Z,5.67
2019-01-06T03:04:52.235Z,7.53
2019-01-06T03:07:22.448Z,9.83
2019-01-06T03:10:01.597Z,7.83
2019-01-06T03:12:37.509Z,7.20
2019-01-06T03:15:23.481Z,8.27
2019-01-06T03:18:05.692Z,6.60
2019-01-06T03:20:35.849Z,8.37
2019-01-06T03:23:22.005Z,5.80
2019-01-06T03:25:52.239Z,8.20
2019-01-06T03:28:28.408Z,7.93
2019-01-06T03:30:58.499Z,8.20
2019-01-06T03:33:44.870Z,7.50
2019-01-06T03:36:14.953Z,6.63
2019-01-06T03:38:53.996Z,5.03
2019-01-06T03:41:27.121Z,6.03
2019-01-06T03:43:59.975Z,5.33
2019-01-06T03:46:33.142Z,5.83
2019-01-06T03:49:15.305Z,5.83
2019-01-06T03:51:45.459Z,4.20
2019-01-06T03:54:27.836Z,5.63
2019-01-06T03:57:13.194Z,5.33
2019-01-06T03:59:43.311Z,6.33
2019-01-06T04:02:13.394Z,4.60
2019-01-06T04:04:55.784Z,4.30
2019-01-06T04:07:38.209Z,4.67
2019-01-06T04:10:08.542Z,4.47
2019-01-06T04:12:41.714Z,3.07
2019-01-06T04:15:27.195Z,4.67
2019-01-06T04:18:00.124Z,4.73
2019-01-06T04:20:36.321Z,5.10
2019-01-06T04:23:22.761Z,6.90
2019-01-06T04:26:09.025Z,6.97
2019-01-06T04:28:42.079Z,2.00
2019-01-06T04:31:27.245Z,6.60
2019-01-06T04:34:13.231Z,4.87
2019-01-06T04:36:43.544Z,4.27
2019-01-06T04:39:28.670Z,7.63
2019-01-06T04:42:07.658Z,4.10
2019-01-06T04:44:53.948Z,6.93
2019-01-06T04:47:26.843Z,4.67
2019-01-06T04:50:12.937Z,6.13
2019-01-06T04:52:59.278Z,5.23
2019-01-06T04:55:31.888Z,5.53
2019-01-06T04:58:04.837Z,5.80
2019-01-06T05:00:37.517Z,4.93
2019-01-06T05:03:24.086Z,6.33
2019-01-06T05:05:54.333Z,5.93
2019-01-06T05:08:39.485Z,5.50
2019-01-06T05:11:25.922Z,5.97
2019-01-06T05:14:01.948Z,4.80
2019-01-06T05:16:32.047Z,3.90
2019-01-06T05:19:02.195Z,4.73
2019-01-06T05:21:48.453Z,5.50
2019-01-06T05:24:35.037Z,5.20
2019-01-06T05:29:49.613Z,3.90
2019-01-06T05:32:31.634Z,4.77
2019-01-06T05:35:13.609Z,4.43
2019-01-06T05:37:46.683Z,4.87
2019-01-06T05:40:19.593Z,4.07
2019-01-06T05:42:55.351Z,6.30
2019-01-06T05:45:41.789Z,5.70
2019-01-06T05:48:20.717Z,5.50
2019-01-06T05:50:50.801Z,4.47
2019-01-06T05:53:20.957Z,4.50
2019-01-06T05:55:51.077Z,4.30
2019-01-06T05:58:23.912Z,4.10
2019-01-06T06:01:10.305Z,4.80
2019-01-06T06:03:42.952Z,5.90
2019-01-06T06:06:22.046Z,3.97
2019-01-06T06:08:52.138Z,3.43
2019-01-06T06:11:34.280Z,3.87
2019-01-06T06:14:10.221Z,4.10
2019-01-06T06:16:49.246Z,3.77
2019-01-06T06:19:25.276Z,5.00
2019-01-06T06:21:55.396Z,3.87
2019-01-06T06:24:28.249Z,5.57
2019-01-06T06:27:01.181Z,4.23
2019-01-06T06:29:31.265Z,4.43
2019-01-06T06:32:03.969Z,3.60
2019-01-06T06:34:34.125Z,6.03
2019-01-06T06:37:13.457Z,5.60
2019-01-06T06:39:52.208Z,7.53
2019-01-06T06:42:37.573Z,5.80
2019-01-06T06:45:07.721Z,3.23
2019-01-06T06:47:52.677Z,3.13
2019-01-06T06:50:25.286Z,6.43
2019-01-06T06:53:11.266Z,4.33
2019-01-06T06:55:41.346Z,5.40
2019-01-06T06:58:15.573Z,7.27
2019-01-06T07:01:20.333Z,9.27
2019-01-06T07:03:59.060Z,6.27
2019-01-06T07:06:35.084Z,4.57
2019-01-06T07:09:06.265Z,5.07
2019-01-06T07:11:47.987Z,7.97
2019-01-06T07:14:29.918Z,7.23
2019-01-06T07:17:34.547Z,5.50
2019-01-06T07:20:05.137Z,7.87
2019-01-06T07:22:35.297Z,4.50
2019-01-06T07:25:08.482Z,7.57
2019-01-06T07:27:38.602Z,5.43
2019-01-06T07:30:08.753Z,7.63
2019-01-06T07:32:38.909Z,5.33
2019-01-06T07:35:27.329Z,5.77
2019-01-06T07:38:06.237Z,5.60
2019-01-06T07:40:41.978Z,4.77
2019-01-06T07:43:14.652Z,4.83
2019-01-06T07:45:47.341Z,6.20
2019-01-06T07:48:23.305Z,8.40
2019-01-06T07:51:09.650Z,6.33
2019-01-06T07:53:39.729Z,5.33
2019-01-06T07:56:25.170Z,6.63
2019-01-06T07:59:10.222Z,5.53
2019-01-06T08:01:40.342Z,7.80
2019-01-06T08:04:12.974Z,7.60
2019-01-06T08:06:43.056Z,5.67
2019-01-06T08:09:31.098Z,5.93
2019-01-06T08:12:01.187Z,6.57
2019-01-06T08:14:31.275Z,6.37
2019-01-06T08:17:07.055Z,7.43
2019-01-06T08:19:45.940Z,6.17
2019-01-06T08:22:32.118Z,9.50
2019-01-06T08:25:18.309Z,7.70
2019-01-06T08:27:51.430Z,8.03
2019-01-06T08:30:30.613Z,16.90
2019-01-06T08:33:15.785Z,12.13
2019-01-06T08:35:45.873Z,9.33
2019-01-06T08:38:16.289Z,16.60
2019-01-06T08:40:52.054Z,22.13
2019-01-06T08:43:27.911Z,21.37
2019-01-06T08:46:07.268Z,19.73
2019-01-06T08:48:53.530Z,11.43
2019-01-06T08:51:32.437Z,20.80
2019-01-06T08:54:02.538Z,29.07
2019-01-06T08:56:32.635Z,18.37
2019-01-06T08:59:09.084Z,21.03
2019-01-06T09:01:39.242Z,23.43
2019-01-06T09:04:18.085Z,30.27
2019-01-06T09:06:57.446Z,28.60
2019-01-06T09:09:33.849Z,27.57
2019-01-06T09:12:16.214Z,23.90
2019-01-06T09:14:52.197Z,23.40
2019-01-06T09:17:38.410Z,16.67
2019-01-06T09:20:10.969Z,16.57
2019-01-06T09:22:57.348Z,13.90
2019-01-06T09:25:27.487Z,15.77
2019-01-06T09:28:13.886Z,15.57
2019-01-06T09:30:55.994Z,17.33
2019-01-06T09:33:42.282Z,17.70
2019-01-06T09:36:27.526Z,11.00
2019-01-06T09:39:00.469Z,9.73
2019-01-06T09:41:33.743Z,10.07
2019-01-06T09:44:21.913Z,10.07
2019-01-06T09:47:04.263Z,13.37
2019-01-06T09:49:52.058Z,20.50
2019-01-06T09:52:38.265Z,12.00
2019-01-06T09:55:24.831Z,14.70
2019-01-06T09:57:57.586Z,8.57
2019-01-06T10:00:45.907Z,11.37
2019-01-06T10:03:21.696Z,7.50
2019-01-06T10:06:00.653Z,15.60
2019-01-06T10:08:30.788Z,10.63
2019-01-06T10:11:03.529Z,9.97
2019-01-06T10:13:39.463Z,8.87
2019-01-06T10:16:24.555Z,11.10
2019-01-06T10:19:12.663Z,14.37
2019-01-06T10:21:45.582Z,13.07
2019-01-06T10:24:15.757Z,17.37
2019-01-06T10:26:58.115Z,28.03
2019-01-06T10:29:28.279Z,22.07
2019-01-06T10:32:01.034Z,11.90
2019-01-06T10:34:47.462Z,18.90
2019-01-06T10:37:17.660Z,11.23
2019-01-06T10:40:05.734Z,15.00
2019-01-06T10:42:44.925Z,13.30
2019-01-06T10:45:20.738Z,11.67
2019-01-06T10:48:07.141Z,13.13
2019-01-06T10:50:43.047Z,16.07
2019-01-06T10:53:15.859Z,13.43
2019-01-06T10:56:02.481Z,17.73
2019-01-06T10:58:47.473Z,16.97
2019-01-06T11:01:33.666Z,14.20
2019-01-06T11:04:09.783Z,15.07
2019-01-06T11:06:45.719Z,16.37
2019-01-06T11:09:18.601Z,11.40
2019-01-06T11:12:03.595Z,58.60
2019-01-06T11:14:33.785Z,26.60
2019-01-06T11:17:20.334Z,37.17
2019-01-06T11:20:06.532Z,15.37
2019-01-06T11:22:39.673Z,28.47
2019-01-06T11:25:12.737Z,31.60
2019-01-06T11:28:00.949Z,15.73
2019-01-06T11:30:40.276Z,17.80
2019-01-06T11:33:10.369Z,18.27
2019-01-06T11:35:40.461Z,15.43
2019-01-06T11:38:22.661Z,19.77
2019-01-06T11:40:55.854Z,14.47
2019-01-06T11:43:34.901Z,16.60
2019-01-06T11:46:20.369Z,18.10
2019-01-06T11:49:07.109Z,15.33
2019-01-06T11:51:37.204Z,18.90
2019-01-06T11:54:23.425Z,15.63
2019-01-06T11:56:59.664Z,15.53
2019-01-06T11:59:32.321Z,14.00
2019-01-06T12:02:17.331Z,18.07
2019-01-06T12:05:03.713Z,13.77
2019-01-06T12:07:36.533Z,18.83
2019-01-06T12:10:27.087Z,16.43
2019-01-06T12:13:13.221Z,19.80
2019-01-06T12:15:49.150Z,18.50
2019-01-06T12:18:31.402Z,14.00
2019-01-06T12:21:17.918Z,17.50
2019-01-06T12:24:04.429Z,18.33
2019-01-06T12:26:49.538Z,16.73
2019-01-06T12:29:19.693Z,16.73
2019-01-06T12:32:06.352Z,13.27
2019-01-06T12:34:42.164Z,13.37
2019-01-06T12:37:18.129Z,16.10
2019-01-06T12:39:54.101Z,12.87
2019-01-06T12:42:40.761Z,14.23
2019-01-06T12:45:16.336Z,20.97
2019-01-06T12:47:46.466Z,13.53
2019-01-06T12:50:22.722Z,14.10
2019-01-06T12:52:55.588Z,14.93
2019-01-06T12:55:31.517Z,12.83
2019-01-06T12:58:18.084Z,15.90
2019-01-06T13:00:48.167Z,15.43
2019-01-06T13:03:34.401Z,16.13
2019-01-06T13:06:04.558Z,34.67
2019-01-06T13:08:34.726Z,26.60
2019-01-06T13:11:21.002Z,13.87
2019-01-06T13:14:09.437Z,14.43
2019-01-06T13:16:45.080Z,15.97
2019-01-06T13:19:29.857Z,15.07
2019-01-06T13:22:09.322Z,23.03
2019-01-06T13:24:42.590Z,23.83
2019-01-06T13:27:28.979Z,19.30
2019-01-06T13:29:59.061Z,15.83
2019-01-06T13:32:32.321Z,10.90
2019-01-06T13:35:14.647Z,14.83
2019-01-06T13:37:53.565Z,19.67
2019-01-06T13:40:39.853Z,21.83
2019-01-06T13:43:12.841Z,22.00
2019-01-06T13:45:48.700Z,19.20
2019-01-06T13:48:24.510Z,26.53
2019-01-06T13:51:06.585Z,24.07
2019-01-06T13:53:39.773Z,34.53
2019-01-06T13:56:26.212Z,40.47
2019-01-06T13:59:12.643Z,30.57
2019-01-06T14:01:42.800Z,30.47
2019-01-06T14:04:27.783Z,28.30
2019-01-06T14:06:57.875Z,21.37
2019-01-06T14:09:39.860Z,21.93
2019-01-06T14:12:09.957Z,23.53
2019-01-06T14:14:56.141Z,28.03
2019-01-06T14:17:42.334Z,20.70
2019-01-06T14:20:27.559Z,23.07
2019-01-06T14:23:09.875Z,20.77
2019-01-06T14:25:56.482Z,16.23
2019-01-06T14:28:26.571Z,21.13
2019-01-06T14:30:56.756Z,14.43
2019-01-06T14:33:27.070Z,67.47
2019-01-06T14:36:15.495Z,63.50
2019-01-06T14:41:34.602Z,20.23
2019-01-06T14:47:05.826Z,22.40
2019-01-06T14:49:50.623Z,22.00
2019-01-06T14:52:37.073Z,19.43
2019-01-06T14:55:27.108Z,26.07
2019-01-06T14:58:13.575Z,19.03
2019-01-06T15:00:49.763Z,14.13
2019-01-06T15:03:19.864Z,16.50
2019-01-06T15:05:58.574Z,16.17
2019-01-06T15:08:49.158Z,19.17
2019-01-06T15:11:35.342Z,11.53
2019-01-06T15:14:21.894Z,9.50
2019-01-06T15:16:52.009Z,15.83
2019-01-06T15:19:30.771Z,15.70
2019-01-06T15:22:17.267Z,15.40
2019-01-06T15:24:50.290Z,16.60
2019-01-06T15:27:38.498Z,17.47
2019-01-06T15:30:16.103Z,20.23
2019-01-06T15:32:49.145Z,18.77
2019-01-06T15:35:28.490Z,30.60
2019-01-06T15:38:14.686Z,25.20
2019-01-06T15:41:00.934Z,20.97
2019-01-06T15:43:46.437Z,19.57
2019-01-06T15:46:25.995Z,25.90
2019-01-06T15:48:56.125Z,25.93
2019-01-06T15:51:42.531Z,23.63
2019-01-06T15:54:12.654Z,27.27
2019-01-06T15:56:42.817Z,22.03
2019-01-06T15:59:12.913Z,26.00
2019-01-06T16:01:49.279Z,32.90
2019-01-06T16:04:28.305Z,40.13
2019-01-06T16:06:58.497Z,43.77
2019-01-06T16:09:34.778Z,34.67
2019-01-06T16:12:07.374Z,37.90
2019-01-06T16:14:53.875Z,45.13
2019-01-06T16:17:24.093Z,37.37
2019-01-06T16:19:54.185Z,25.70
2019-01-06T16:22:42.384Z,26.33
2019-01-06T16:25:21.347Z,24.33
2019-01-06T16:28:07.827Z,25.17
2019-01-06T16:30:43.860Z,31.33
2019-01-06T16:33:15.323Z,28.43
2019-01-06T16:35:48.091Z,28.53
2019-01-06T16:38:23.825Z,33.80
2019-01-06T16:40:59.709Z,31.23
2019-01-06T16:43:45.018Z,35.37
2019-01-06T16:46:15.127Z,40.63
2019-01-06T16:49:01.606Z,38.40
2019-01-06T16:51:43.826Z,42.87
2019-01-06T16:54:19.981Z,33.70
2019-01-06T16:57:05.333Z,27.60
2019-01-06T16:59:35.497Z,28.73
2019-01-06T17:02:08.614Z,25.50
2019-01-06T17:04:44.259Z,29.13
2019-01-06T17:07:14.350Z,26.10
2019-01-06T17:09:50.587Z,29.30
2019-01-06T17:12:29.530Z,23.23
2019-01-06T17:15:15.831Z,25.50
2019-01-06T17:18:00.887Z,24.83
2019-01-06T17:20:31.090Z,27.13
2019-01-06T17:23:01.185Z,27.00
2019-01-06T17:25:46.290Z,25.37
2019-01-06T17:28:22.123Z,25.53
2019-01-06T17:30:58.247Z,25.97
2019-01-06T17:33:37.472Z,29.27
2019-01-06T17:36:13.529Z,31.93
2019-01-06T17:39:01.707Z,29.10
2019-01-06T17:41:47.053Z,33.80
2019-01-06T17:44:20.149Z,28.37
2019-01-06T17:47:06.758Z,28.57
2019-01-06T17:49:36.903Z,30.27
2019-01-06T17:52:13.159Z,28.20
2019-01-06T17:54:49.003Z,30.47
2019-01-06T17:57:22.006Z,37.07
2019-01-06T18:00:08.148Z,44.13
2019-01-06T18:02:38.349Z,61.27
2019-01-06T18:05:20.577Z,68.73
2019-01-06T18:08:05.955Z,89.17
2019-01-06T18:10:38.949Z,83.90
2019-01-06T18:13:18.159Z,97.80
2019-01-06T18:16:04.647Z,102.00
2019-01-06T18:18:40.538Z,122.77
2019-01-06T18:21:19.634Z,121.80
2019-01-06T18:24:07.849Z,150.70
2019-01-06T18:26:54.224Z,172.80
2019-01-06T18:29:36.395Z,140.93
2019-01-06T18:32:18.539Z,128.83
2019-01-06T18:34:48.669Z,279.23
2019-01-06T18:37:24.796Z,228.00
2019-01-06T18:39:57.722Z,199.13
2019-01-06T18:42:27.885Z,198.43
2019-01-06T18:44:58.045Z,208.57
2019-01-06T18:47:44.586Z,174.07
2019-01-06T18:50:31.054Z,107.20
2019-01-06T18:53:16.357Z,84.67
2019-01-06T18:55:49.122Z,116.70
2019-01-06T18:58:35.421Z,115.90
2019-01-06T19:01:21.998Z,97.37
2019-01-06T19:04:08.353Z,97.97
2019-01-06T19:06:38.445Z,83.17
2019-01-06T19:09:25.768Z,73.33
2019-01-06T19:12:11.893Z,66.80
2019-01-06T19:14:42.041Z,59.27
2019-01-06T19:17:28.497Z,55.13
2019-01-06T19:19:58.837Z,40.23
2019-01-06T19:22:32.324Z,62.47
2019-01-06T19:25:08.592Z,58.00
2019-01-06T19:27:38.750Z,56.73
2019-01-06T19:30:08.929Z,58.70
2019-01-06T19:32:50.765Z,62.57
2019-01-06T19:35:20.995Z,56.00
2019-01-06T19:37:57.321Z,59.37
2019-01-06T19:40:43.520Z,54.87
2019-01-06T19:43:16.175Z,51.90
2019-01-06T19:45:48.790Z,43.00
2019-01-06T19:48:24.904Z,42.27
2019-01-06T19:50:55.625Z,53.87
2019-01-06T19:53:34.977Z,48.27
2019-01-06T19:56:14.181Z,48.87
2019-01-06T19:58:59.605Z,55.87
2019-01-06T20:01:35.802Z,57.70
2019-01-06T20:04:12.017Z,73.17
2019-01-06T20:06:58.544Z,71.40
2019-01-06T20:09:47.017Z,76.50
2019-01-06T20:12:17.105Z,79.83
2019-01-06T20:14:53.009Z,73.17
2019-01-06T20:17:23.170Z,58.57
2019-01-06T20:20:05.386Z,65.23
2019-01-06T20:22:50.283Z,66.27
2019-01-06T20:25:38.353Z,80.40
2019-01-06T20:28:17.130Z,77.70
2019-01-06T20:30:56.149Z,91.30
2019-01-06T20:33:42.801Z,85.20
2019-01-06T20:36:15.765Z,94.07
2019-01-06T20:38:58.121Z,98.13
2019-01-06T20:41:33.718Z,108.57
2019-01-06T20:44:09.553Z,92.63
2019-01-06T20:46:39.747Z,100.00
2019-01-06T20:49:21.946Z,101.73
2019-01-06T20:51:52.141Z,105.37
2019-01-06T20:54:34.368Z,252.73
2019-01-06T20:57:07.093Z,506.03
2019-01-06T20:59:52.144Z,849.87
2019-01-06T21:02:22.278Z,457.53
2019-01-06T21:04:55.009Z,209.97
2019-01-06T21:07:28.093Z,173.33
2019-01-06T21:10:04.393Z,125.57
2019-01-06T21:12:49.857Z,147.30
2019-01-06T21:15:35.063Z,177.70
2019-01-06T21:18:21.551Z,137.23
2019-01-06T21:21:07.997Z,97.87
2019-01-06T21:23:54.364Z,89.97
2019-01-06T21:26:24.534Z,125.17
2019-01-06T21:29:03.648Z,123.43
2019-01-06T21:31:36.760Z,113.53
2019-01-06T21:34:15.741Z,125.17
2019-01-06T21:37:04.210Z,119.30
2019-01-06T21:39:50.935Z,88.97
2019-01-06T21:42:39.723Z,81.93
2019-01-06T21:45:25.929Z,102.70
2019-01-06T21:47:56.032Z,121.20
2019-01-06T21:50:38.006Z,91.07
2019-01-06T21:53:08.253Z,93.23
2019-01-06T21:55:53.141Z,133.57
2019-01-06T21:58:39.791Z,158.53
2019-01-06T22:01:25.909Z,125.10
2019-01-06T22:03:56.021Z,86.53
2019-01-06T22:06:26.125Z,83.53
2019-01-06T22:09:02.043Z,91.33
2019-01-06T22:11:35.192Z,78.97
2019-01-06T22:14:11.351Z,82.00
2019-01-06T22:16:58.309Z,70.47
2019-01-06T22:19:43.774Z,63.50
2019-01-06T22:22:16.678Z,77.23
2019-01-06T22:25:03.094Z,69.80
2019-01-06T22:27:33.254Z,49.00
2019-01-06T22:30:03.419Z,56.33
2019-01-06T22:32:36.729Z,54.57
2019-01-06T22:35:07.412Z,64.17
2019-01-06T22:37:49.499Z,52.07
2019-01-06T22:40:25.588Z,62.63
2019-01-06T22:43:11.981Z,55.40
2019-01-06T22:45:50.826Z,67.93
2019-01-06T22:48:36.073Z,56.57
2019-01-06T22:51:12.201Z,57.67
2019-01-06T22:53:58.370Z,80.60
2019-01-06T22:56:37.449Z,64.80
2019-01-06T22:59:23.825Z,57.87
2019-01-06T23:02:03.121Z,52.97
2019-01-06T23:04:33.284Z,55.10
2019-01-06T23:07:23.468Z,65.27
2019-01-06T23:10:02.483Z,66.50
2019-01-06T23:12:48.870Z,69.23
2019-01-06T23:15:44.239Z,65.20
2019-01-06T23:18:30.798Z,69.37
2019-01-06T23:21:04.129Z,95.57
2019-01-06T23:23:46.445Z,98.37
2019-01-06T23:26:19.142Z,94.83
2019-01-06T23:28:52.276Z,88.30
2019-01-06T23:31:25.109Z,82.07
2019-01-06T23:33:55.214Z,70.13
2019-01-06T23:36:31.516Z,78.27
2019-01-06T23:39:17.090Z,73.97
2019-01-06T23:41:50.195Z,77.73
2019-01-06T23:44:36.464Z,77.30
2019-01-06T23:47:18.315Z,103.73
2019-01-06T23:49:51.150Z,130.67
2019-01-06T23:52:37.670Z,134.90
2019-01-06T23:55:10.552Z,235.03
2019-01-06T23:57:40.665Z,135.00
